sensor_id;sensor_type;location;lat;lon;timestamp;P1;durP1;ratioP1;P2;durP2;ratioP2
12784;SDS011;6456;42.680;23.260;2024-02-21T00:00:40;4.73;;;4.23;;
12784;SDS011;6456;42.680;23.260;2024-02-21T00:03:09;4.37;;;3.93;;
12784;SDS011;6456;42.680;23.260;2024-02-21T00:05:38;4.80;;;3.80;;
12784;SDS011;6456;42.680;23.260;2024-02-21T00:08:08;3.90;;;3.60;;
12784;SDS011;6456;42.680;23.260;2024-02-21T00:10:36;4.17;;;3.77;;
12784;SDS011;6456;42.680;23.260;2024-02-21T00:13:03;4.30;;;3.90;;
12784;SDS011;6456;42.680;23.260;2024-02-21T00:15:34;4.70;;;3.67;;
12784;SDS011;6456;42.680;23.260;2024-02-21T00:18:01;4.40;;;3.67;;
12784;SDS011;6456;42.680;23.260;2024-02-21T00:20:28;4.10;;;3.70;;
12784;SDS011;6456;42.680;23.260;2024-02-21T00:22:57;3.80;;;3.47;;
12784;SDS011;6456;42.680;23.260;2024-02-21T00:25:24;4.70;;;4.20;;
12784;SDS011;6456;42.680;23.260;2024-02-21T00:27:51;5.03;;;4.33;;
12784;SDS011;6456;42.680;23.260;2024-02-21T00:30:19;4.97;;;4.33;;
12784;SDS011;6456;42.680;23.260;2024-02-21T00:32:49;4.83;;;4.13;;
12784;SDS011;6456;42.680;23.260;2024-02-21T00:35:18;4.63;;;4.00;;
12784;SDS011;6456;42.680;23.260;2024-02-21T00:37:48;5.20;;;4.03;;
12784;SDS011;6456;42.680;23.260;2024-02-21T00:40:17;4.67;;;4.17;;
12784;SDS011;6456;42.680;23.260;2024-02-21T00:42:45;4.37;;;3.97;;
12784;SDS011;6456;42.680;23.260;2024-02-21T00:45:12;5.23;;;4.10;;
12784;SDS011;6456;42.680;23.260;2024-02-21T00:47:42;4.53;;;3.90;;
12784;SDS011;6456;42.680;23.260;2024-02-21T00:50:11;4.33;;;3.83;;
12784;SDS011;6456;42.680;23.260;2024-02-21T00:52:45;4.33;;;3.93;;
12784;SDS011;6456;42.680;23.260;2024-02-21T00:55:13;4.60;;;4.10;;
12784;SDS011;6456;42.680;23.260;2024-02-21T00:57:48;4.80;;;4.10;;
12784;SDS011;6456;42.680;23.260;2024-02-21T01:00:15;4.23;;;3.83;;
12784;SDS011;6456;42.680;23.260;2024-02-21T01:02:45;5.20;;;4.50;;
12784;SDS011;6456;42.680;23.260;2024-02-21T01:05:13;4.63;;;4.23;;
12784;SDS011;6456;42.680;23.260;2024-02-21T01:07:44;4.37;;;3.97;;
12784;SDS011;6456;42.680;23.260;2024-02-21T01:10:11;4.20;;;3.80;;
12784;SDS011;6456;42.680;23.260;2024-02-21T01:12:38;4.83;;;4.20;;
12784;SDS011;6456;42.680;23.260;2024-02-21T01:15:07;4.70;;;3.80;;
12784;SDS011;6456;42.680;23.260;2024-02-21T01:17:37;3.60;;;3.30;;
12784;SDS011;6456;42.680;23.260;2024-02-21T01:20:06;4.63;;;4.13;;
12784;SDS011;6456;42.680;23.260;2024-02-21T01:22:33;4.43;;;4.00;;
12784;SDS011;6456;42.680;23.260;2024-02-21T01:25:02;4.43;;;3.90;;
12784;SDS011;6456;42.680;23.260;2024-02-21T01:27:29;4.20;;;3.80;;
12784;SDS011;6456;42.680;23.260;2024-02-21T01:29:56;4.57;;;4.17;;
12784;SDS011;6456;42.680;23.260;2024-02-21T01:32:25;4.70;;;4.20;;
12784;SDS011;6456;42.680;23.260;2024-02-21T01:34:52;4.80;;;4.30;;
12784;SDS011;6456;42.680;23.260;2024-02-21T01:37:19;4.27;;;3.80;;
12784;SDS011;6456;42.680;23.260;2024-02-21T01:39:46;4.80;;;4.30;;
12784;SDS011;6456;42.680;23.260;2024-02-21T01:42:14;5.83;;;4.17;;
12784;SDS011;6456;42.680;23.260;2024-02-21T01:44:41;6.60;;;4.43;;
12784;SDS011;6456;42.680;23.260;2024-02-21T01:47:08;4.60;;;4.20;;
12784;SDS011;6456;42.680;23.260;2024-02-21T01:49:40;6.03;;;5.03;;
12784;SDS011;6456;42.680;23.260;2024-02-21T01:52:07;6.00;;;5.00;;
12784;SDS011;6456;42.680;23.260;2024-02-21T01:54:35;6.07;;;5.23;;
12784;SDS011;6456;42.680;23.260;2024-02-21T01:57:02;7.03;;;6.13;;
12784;SDS011;6456;42.680;23.260;2024-02-21T01:59:30;7.53;;;6.40;;
12784;SDS011;6456;42.680;23.260;2024-02-21T02:01:57;6.97;;;5.80;;
12784;SDS011;6456;42.680;23.260;2024-02-21T02:04:26;7.37;;;6.50;;
12784;SDS011;6456;42.680;23.260;2024-02-21T02:06:55;6.73;;;6.03;;
12784;SDS011;6456;42.680;23.260;2024-02-21T02:09:23;7.67;;;6.70;;
12784;SDS011;6456;42.680;23.260;2024-02-21T02:11:50;6.57;;;5.87;;
12784;SDS011;6456;42.680;23.260;2024-02-21T02:14:17;6.80;;;6.00;;
12784;SDS011;6456;42.680;23.260;2024-02-21T02:16:46;8.27;;;7.13;;
12784;SDS011;6456;42.680;23.260;2024-02-21T02:19:13;7.07;;;6.30;;
12784;SDS011;6456;42.680;23.260;2024-02-21T02:21:42;8.70;;;7.30;;
12784;SDS011;6456;42.680;23.260;2024-02-21T02:24:20;8.93;;;7.40;;
12784;SDS011;6456;42.680;23.260;2024-02-21T02:26:50;8.60;;;7.30;;
12784;SDS011;6456;42.680;23.260;2024-02-21T02:29:17;8.73;;;7.23;;
12784;SDS011;6456;42.680;23.260;2024-02-21T02:31:47;8.73;;;7.50;;
12784;SDS011;6456;42.680;23.260;2024-02-21T02:34:15;8.60;;;7.43;;
12784;SDS011;6456;42.680;23.260;2024-02-21T02:36:42;8.60;;;7.53;;
12784;SDS011;6456;42.680;23.260;2024-02-21T02:39:09;8.93;;;7.73;;
12784;SDS011;6456;42.680;23.260;2024-02-21T02:41:38;8.40;;;7.07;;
12784;SDS011;6456;42.680;23.260;2024-02-21T02:44:05;9.63;;;7.80;;
12784;SDS011;6456;42.680;23.260;2024-02-21T02:46:36;8.80;;;7.77;;
12784;SDS011;6456;42.680;23.260;2024-02-21T02:49:11;8.57;;;7.60;;
12784;SDS011;6456;42.680;23.260;2024-02-21T02:51:40;8.30;;;7.30;;
12784;SDS011;6456;42.680;23.260;2024-02-21T02:54:08;8.53;;;7.27;;
12784;SDS011;6456;42.680;23.260;2024-02-21T02:56:35;9.07;;;7.73;;
12784;SDS011;6456;42.680;23.260;2024-02-21T02:59:04;7.90;;;7.10;;
12784;SDS011;6456;42.680;23.260;2024-02-21T03:01:33;8.83;;;6.87;;
12784;SDS011;6456;42.680;23.260;2024-02-21T03:04:00;8.17;;;7.37;;
12784;SDS011;6456;42.680;23.260;2024-02-21T03:06:27;8.63;;;7.40;;
12784;SDS011;6456;42.680;23.260;2024-02-21T03:08:54;8.20;;;7.23;;
12784;SDS011;6456;42.680;23.260;2024-02-21T03:11:21;7.63;;;6.83;;
12784;SDS011;6456;42.680;23.260;2024-02-21T03:13:56;9.63;;;7.77;;
12784;SDS011;6456;42.680;23.260;2024-02-21T03:16:23;8.67;;;7.03;;
12784;SDS011;6456;42.680;23.260;2024-02-21T03:18:50;8.73;;;7.63;;
12784;SDS011;6456;42.680;23.260;2024-02-21T03:21:17;9.90;;;8.07;;
12784;SDS011;6456;42.680;23.260;2024-02-21T03:23:44;8.13;;;7.27;;
12784;SDS011;6456;42.680;23.260;2024-02-21T03:26:11;8.73;;;7.57;;
12784;SDS011;6456;42.680;23.260;2024-02-21T03:28:42;8.23;;;7.40;;
12784;SDS011;6456;42.680;23.260;2024-02-21T03:31:13;10.83;;;8.37;;
12784;SDS011;6456;42.680;23.260;2024-02-21T03:33:43;10.13;;;8.03;;
12784;SDS011;6456;42.680;23.260;2024-02-21T03:36:12;10.97;;;7.80;;
12784;SDS011;6456;42.680;23.260;2024-02-21T03:38:40;9.77;;;8.47;;
12784;SDS011;6456;42.680;23.260;2024-02-21T03:41:25;10.57;;;8.20;;
12784;SDS011;6456;42.680;23.260;2024-02-21T03:43:53;9.60;;;8.57;;
12784;SDS011;6456;42.680;23.260;2024-02-21T03:46:22;10.10;;;8.37;;
12784;SDS011;6456;42.680;23.260;2024-02-21T03:48:50;11.63;;;9.07;;
12784;SDS011;6456;42.680;23.260;2024-02-21T03:51:18;10.53;;;9.13;;
12784;SDS011;6456;42.680;23.260;2024-02-21T03:53:45;9.97;;;8.33;;
12784;SDS011;6456;42.680;23.260;2024-02-21T03:56:12;11.37;;;9.60;;
12784;SDS011;6456;42.680;23.260;2024-02-21T03:58:39;11.27;;;9.67;;
12784;SDS011;6456;42.680;23.260;2024-02-21T04:01:06;11.60;;;9.60;;
12784;SDS011;6456;42.680;23.260;2024-02-21T04:03:35;11.37;;;9.60;;
12784;SDS011;6456;42.680;23.260;2024-02-21T04:06:02;10.20;;;8.60;;
12784;SDS011;6456;42.680;23.260;2024-02-21T04:08:30;11.33;;;9.23;;
12784;SDS011;6456;42.680;23.260;2024-02-21T04:10:59;12.97;;;9.13;;
12784;SDS011;6456;42.680;23.260;2024-02-21T04:13:27;12.13;;;9.47;;
12784;SDS011;6456;42.680;23.260;2024-02-21T04:15:54;11.03;;;8.70;;
12784;SDS011;6456;42.680;23.260;2024-02-21T04:18:22;9.97;;;8.60;;
12784;SDS011;6456;42.680;23.260;2024-02-21T04:20:51;10.87;;;9.23;;
12784;SDS011;6456;42.680;23.260;2024-02-21T04:23:18;10.30;;;8.67;;
12784;SDS011;6456;42.680;23.260;2024-02-21T04:25:45;11.47;;;9.40;;
12784;SDS011;6456;42.680;23.260;2024-02-21T04:28:12;11.30;;;9.27;;
12784;SDS011;6456;42.680;23.260;2024-02-21T04:30:39;10.97;;;8.83;;
12784;SDS011;6456;42.680;23.260;2024-02-21T04:33:06;9.70;;;8.53;;
12784;SDS011;6456;42.680;23.260;2024-02-21T04:35:33;11.47;;;9.17;;
12784;SDS011;6456;42.680;23.260;2024-02-21T04:38:04;11.17;;;9.30;;
12784;SDS011;6456;42.680;23.260;2024-02-21T04:40:32;9.93;;;8.30;;
12784;SDS011;6456;42.680;23.260;2024-02-21T04:42:59;11.03;;;9.63;;
12784;SDS011;6456;42.680;23.260;2024-02-21T04:45:26;11.13;;;9.00;;
12784;SDS011;6456;42.680;23.260;2024-02-21T04:47:53;10.97;;;9.37;;
12784;SDS011;6456;42.680;23.260;2024-02-21T04:50:20;10.83;;;9.53;;
12784;SDS011;6456;42.680;23.260;2024-02-21T04:52:47;10.80;;;9.33;;
12784;SDS011;6456;42.680;23.260;2024-02-21T04:55:16;13.13;;;9.47;;
12784;SDS011;6456;42.680;23.260;2024-02-21T04:57:43;10.80;;;9.37;;
12784;SDS011;6456;42.680;23.260;2024-02-21T05:00:10;10.50;;;9.17;;
12784;SDS011;6456;42.680;23.260;2024-02-21T05:02:38;9.67;;;8.47;;
12784;SDS011;6456;42.680;23.260;2024-02-21T05:05:05;11.33;;;9.27;;
12784;SDS011;6456;42.680;23.260;2024-02-21T05:07:32;10.43;;;8.33;;
12784;SDS011;6456;42.680;23.260;2024-02-21T05:10:01;11.57;;;9.90;;
12784;SDS011;6456;42.680;23.260;2024-02-21T05:12:30;13.10;;;10.60;;
12784;SDS011;6456;42.680;23.260;2024-02-21T05:14:59;14.77;;;11.53;;
12784;SDS011;6456;42.680;23.260;2024-02-21T05:17:26;11.97;;;10.00;;
12784;SDS011;6456;42.680;23.260;2024-02-21T05:19:53;15.60;;;12.10;;
12784;SDS011;6456;42.680;23.260;2024-02-21T05:22:20;12.93;;;10.87;;
12784;SDS011;6456;42.680;23.260;2024-02-21T05:24:47;12.90;;;11.30;;
12784;SDS011;6456;42.680;23.260;2024-02-21T05:27:14;12.53;;;10.53;;
12784;SDS011;6456;42.680;23.260;2024-02-21T05:29:42;12.90;;;11.13;;
12784;SDS011;6456;42.680;23.260;2024-02-21T05:32:09;11.87;;;10.30;;
12784;SDS011;6456;42.680;23.260;2024-02-21T05:34:36;12.17;;;9.80;;
12784;SDS011;6456;42.680;23.260;2024-02-21T05:37:04;11.90;;;10.20;;
12784;SDS011;6456;42.680;23.260;2024-02-21T05:39:31;11.37;;;9.50;;
12784;SDS011;6456;42.680;23.260;2024-02-21T05:41:58;12.27;;;9.73;;
12784;SDS011;6456;42.680;23.260;2024-02-21T05:44:25;11.23;;;9.70;;
12784;SDS011;6456;42.680;23.260;2024-02-21T05:46:56;11.67;;;9.77;;
12784;SDS011;6456;42.680;23.260;2024-02-21T05:49:23;11.27;;;9.13;;
12784;SDS011;6456;42.680;23.260;2024-02-21T05:51:50;10.97;;;9.37;;
12784;SDS011;6456;42.680;23.260;2024-02-21T05:54:17;10.53;;;9.20;;
12784;SDS011;6456;42.680;23.260;2024-02-21T05:56:44;11.83;;;9.90;;
12784;SDS011;6456;42.680;23.260;2024-02-21T05:59:12;11.97;;;9.67;;
12784;SDS011;6456;42.680;23.260;2024-02-21T06:01:39;12.73;;;9.50;;
12784;SDS011;6456;42.680;23.260;2024-02-21T06:04:07;10.13;;;8.73;;
12784;SDS011;6456;42.680;23.260;2024-02-21T06:06:34;10.97;;;9.17;;
12784;SDS011;6456;42.680;23.260;2024-02-21T06:09:01;11.83;;;9.23;;
12784;SDS011;6456;42.680;23.260;2024-02-21T06:11:28;11.53;;;9.20;;
12784;SDS011;6456;42.680;23.260;2024-02-21T06:13:55;11.00;;;9.00;;
12784;SDS011;6456;42.680;23.260;2024-02-21T06:16:22;11.43;;;9.80;;
12784;SDS011;6456;42.680;23.260;2024-02-21T06:18:49;10.60;;;9.07;;
12784;SDS011;6456;42.680;23.260;2024-02-21T06:21:18;11.83;;;9.50;;
12784;SDS011;6456;42.680;23.260;2024-02-21T06:23:45;13.10;;;10.03;;
12784;SDS011;6456;42.680;23.260;2024-02-21T06:26:12;12.90;;;9.43;;
12784;SDS011;6456;42.680;23.260;2024-02-21T06:28:42;12.20;;;9.93;;
12784;SDS011;6456;42.680;23.260;2024-02-21T06:31:11;13.63;;;10.43;;
12784;SDS011;6456;42.680;23.260;2024-02-21T06:33:38;14.97;;;10.37;;
12784;SDS011;6456;42.680;23.260;2024-02-21T06:36:07;11.67;;;9.60;;
12784;SDS011;6456;42.680;23.260;2024-02-21T06:38:36;13.60;;;10.50;;
12784;SDS011;6456;42.680;23.260;2024-02-21T06:41:03;12.03;;;9.87;;
12784;SDS011;6456;42.680;23.260;2024-02-21T06:43:30;14.30;;;10.33;;
12784;SDS011;6456;42.680;23.260;2024-02-21T06:45:57;12.17;;;9.30;;
12784;SDS011;6456;42.680;23.260;2024-02-21T06:48:24;12.33;;;10.10;;
12784;SDS011;6456;42.680;23.260;2024-02-21T06:50:51;12.07;;;9.83;;
12784;SDS011;6456;42.680;23.260;2024-02-21T06:53:18;10.90;;;9.47;;
12784;SDS011;6456;42.680;23.260;2024-02-21T06:55:49;13.83;;;9.57;;
12784;SDS011;6456;42.680;23.260;2024-02-21T06:58:16;13.80;;;10.23;;
12784;SDS011;6456;42.680;23.260;2024-02-21T07:00:43;12.00;;;10.27;;
12784;SDS011;6456;42.680;23.260;2024-02-21T07:03:10;11.03;;;9.50;;
12784;SDS011;6456;42.680;23.260;2024-02-21T07:05:37;12.77;;;10.23;;
12784;SDS011;6456;42.680;23.260;2024-02-21T07:08:04;14.90;;;10.23;;
12784;SDS011;6456;42.680;23.260;2024-02-21T07:10:32;11.87;;;10.33;;
12784;SDS011;6456;42.680;23.260;2024-02-21T07:13:00;12.87;;;10.00;;
12784;SDS011;6456;42.680;23.260;2024-02-21T07:15:27;13.10;;;10.63;;
12784;SDS011;6456;42.680;23.260;2024-02-21T07:17:56;12.83;;;10.60;;
12784;SDS011;6456;42.680;23.260;2024-02-21T07:20:23;12.27;;;10.77;;
12784;SDS011;6456;42.680;23.260;2024-02-21T07:22:50;14.97;;;11.30;;
12784;SDS011;6456;42.680;23.260;2024-02-21T07:25:17;16.60;;;10.83;;
12784;SDS011;6456;42.680;23.260;2024-02-21T07:27:44;13.97;;;10.90;;
12784;SDS011;6456;42.680;23.260;2024-02-21T07:30:12;12.60;;;10.03;;
12784;SDS011;6456;42.680;23.260;2024-02-21T07:32:40;12.77;;;10.17;;
12784;SDS011;6456;42.680;23.260;2024-02-21T07:35:07;11.57;;;9.93;;
12784;SDS011;6456;42.680;23.260;2024-02-21T07:37:36;12.53;;;10.47;;
12784;SDS011;6456;42.680;23.260;2024-02-21T07:40:04;13.40;;;10.43;;
12784;SDS011;6456;42.680;23.260;2024-02-21T07:42:32;14.20;;;11.00;;
12784;SDS011;6456;42.680;23.260;2024-02-21T07:45:00;14.47;;;10.37;;
12784;SDS011;6456;42.680;23.260;2024-02-21T07:47:29;12.33;;;11.03;;
12784;SDS011;6456;42.680;23.260;2024-02-21T07:49:56;12.37;;;9.97;;
12784;SDS011;6456;42.680;23.260;2024-02-21T07:52:23;13.50;;;11.30;;
12784;SDS011;6456;42.680;23.260;2024-02-21T07:54:50;13.17;;;9.90;;
12784;SDS011;6456;42.680;23.260;2024-02-21T07:57:18;14.33;;;10.73;;
12784;SDS011;6456;42.680;23.260;2024-02-21T07:59:45;13.43;;;10.97;;
12784;SDS011;6456;42.680;23.260;2024-02-21T08:02:13;15.80;;;10.73;;
12784;SDS011;6456;42.680;23.260;2024-02-21T08:04:41;11.33;;;9.93;;
12784;SDS011;6456;42.680;23.260;2024-02-21T08:07:09;10.63;;;9.23;;
12784;SDS011;6456;42.680;23.260;2024-02-21T08:09:36;12.27;;;10.93;;
12784;SDS011;6456;42.680;23.260;2024-02-21T08:12:03;12.97;;;10.50;;
12784;SDS011;6456;42.680;23.260;2024-02-21T08:14:32;11.00;;;9.90;;
12784;SDS011;6456;42.680;23.260;2024-02-21T08:16:59;12.97;;;10.93;;
12784;SDS011;6456;42.680;23.260;2024-02-21T08:19:26;12.13;;;9.63;;
12784;SDS011;6456;42.680;23.260;2024-02-21T08:21:55;12.20;;;9.90;;
12784;SDS011;6456;42.680;23.260;2024-02-21T08:24:22;10.17;;;9.07;;
12784;SDS011;6456;42.680;23.260;2024-02-21T08:26:49;11.97;;;9.90;;
12784;SDS011;6456;42.680;23.260;2024-02-21T08:29:16;11.47;;;9.43;;
12784;SDS011;6456;42.680;23.260;2024-02-21T08:31:43;10.73;;;9.07;;
12784;SDS011;6456;42.680;23.260;2024-02-21T08:34:10;10.30;;;9.20;;
12784;SDS011;6456;42.680;23.260;2024-02-21T08:36:38;10.20;;;9.17;;
12784;SDS011;6456;42.680;23.260;2024-02-21T08:39:06;9.80;;;8.80;;
12784;SDS011;6456;42.680;23.260;2024-02-21T08:41:34;10.97;;;8.77;;
12784;SDS011;6456;42.680;23.260;2024-02-21T08:44:01;10.07;;;9.07;;
12784;SDS011;6456;42.680;23.260;2024-02-21T08:46:28;11.23;;;8.70;;
12784;SDS011;6456;42.680;23.260;2024-02-21T08:48:55;10.10;;;9.10;;
12784;SDS011;6456;42.680;23.260;2024-02-21T08:51:22;11.20;;;8.73;;
12784;SDS011;6456;42.680;23.260;2024-02-21T08:53:49;9.47;;;8.40;;
12784;SDS011;6456;42.680;23.260;2024-02-21T08:56:18;9.63;;;8.63;;
12784;SDS011;6456;42.680;23.260;2024-02-21T08:58:45;10.70;;;9.07;;
12784;SDS011;6456;42.680;23.260;2024-02-21T09:01:12;10.03;;;8.27;;
12784;SDS011;6456;42.680;23.260;2024-02-21T09:03:42;11.43;;;8.47;;
12784;SDS011;6456;42.680;23.260;2024-02-21T09:06:09;11.30;;;9.13;;
12784;SDS011;6456;42.680;23.260;2024-02-21T09:08:38;9.37;;;8.30;;
12784;SDS011;6456;42.680;23.260;2024-02-21T09:11:06;10.13;;;9.03;;
12784;SDS011;6456;42.680;23.260;2024-02-21T09:13:34;11.17;;;8.83;;
12784;SDS011;6456;42.680;23.260;2024-02-21T09:16:01;10.23;;;9.23;;
12784;SDS011;6456;42.680;23.260;2024-02-21T09:18:28;12.53;;;9.43;;
12784;SDS011;6456;42.680;23.260;2024-02-21T09:20:56;11.20;;;8.93;;
12784;SDS011;6456;42.680;23.260;2024-02-21T09:23:23;10.60;;;9.50;;
12784;SDS011;6456;42.680;23.260;2024-02-21T09:25:51;10.97;;;9.73;;
12784;SDS011;6456;42.680;23.260;2024-02-21T09:28:18;13.37;;;10.10;;
12784;SDS011;6456;42.680;23.260;2024-02-21T09:30:47;10.43;;;8.97;;
12784;SDS011;6456;42.680;23.260;2024-02-21T09:33:14;10.60;;;9.50;;
12784;SDS011;6456;42.680;23.260;2024-02-21T09:35:41;12.27;;;10.17;;
12784;SDS011;6456;42.680;23.260;2024-02-21T09:38:08;10.53;;;9.33;;
12784;SDS011;6456;42.680;23.260;2024-02-21T09:40:35;11.13;;;9.77;;
12784;SDS011;6456;42.680;23.260;2024-02-21T09:43:04;11.43;;;10.20;;
12784;SDS011;6456;42.680;23.260;2024-02-21T09:45:32;10.30;;;9.20;;
12784;SDS011;6456;42.680;23.260;2024-02-21T09:48:11;11.13;;;8.63;;
12784;SDS011;6456;42.680;23.260;2024-02-21T09:50:51;9.80;;;8.80;;
12784;SDS011;6456;42.680;23.260;2024-02-21T09:53:21;11.63;;;9.10;;
12784;SDS011;6456;42.680;23.260;2024-02-21T09:55:51;10.17;;;8.77;;
12784;SDS011;6456;42.680;23.260;2024-02-21T09:58:19;8.87;;;7.97;;
12784;SDS011;6456;42.680;23.260;2024-02-21T10:00:47;11.30;;;8.30;;
12784;SDS011;6456;42.680;23.260;2024-02-21T10:03:15;8.93;;;8.03;;
12784;SDS011;6456;42.680;23.260;2024-02-21T10:05:47;7.90;;;7.03;;
12784;SDS011;6456;42.680;23.260;2024-02-21T10:08:15;7.77;;;6.97;;
12784;SDS011;6456;42.680;23.260;2024-02-21T10:10:42;8.57;;;7.73;;
12784;SDS011;6456;42.680;23.260;2024-02-21T10:13:10;8.73;;;7.33;;
12784;SDS011;6456;42.680;23.260;2024-02-21T10:15:37;9.27;;;7.33;;
12784;SDS011;6456;42.680;23.260;2024-02-21T10:18:04;7.83;;;6.83;;
12784;SDS011;6456;42.680;23.260;2024-02-21T10:20:33;8.03;;;7.23;;
12784;SDS011;6456;42.680;23.260;2024-02-21T10:23:00;12.50;;;6.97;;
12784;SDS011;6456;42.680;23.260;2024-02-21T10:25:28;8.03;;;7.23;;
12784;SDS011;6456;42.680;23.260;2024-02-21T10:27:56;7.30;;;6.60;;
12784;SDS011;6456;42.680;23.260;2024-02-21T10:30:23;7.27;;;6.40;;
12784;SDS011;6456;42.680;23.260;2024-02-21T10:32:50;7.23;;;6.53;;
12784;SDS011;6456;42.680;23.260;2024-02-21T10:35:25;7.47;;;6.70;;
12784;SDS011;6456;42.680;23.260;2024-02-21T10:37:55;7.20;;;6.40;;
12784;SDS011;6456;42.680;23.260;2024-02-21T10:40:23;6.43;;;5.83;;
12784;SDS011;6456;42.680;23.260;2024-02-21T10:42:52;6.23;;;5.63;;
12784;SDS011;6456;42.680;23.260;2024-02-21T10:45:27;6.50;;;5.80;;
12784;SDS011;6456;42.680;23.260;2024-02-21T10:48:01;6.07;;;5.57;;
12784;SDS011;6456;42.680;23.260;2024-02-21T10:50:32;5.67;;;5.10;;
12784;SDS011;6456;42.680;23.260;2024-02-21T10:56:01;5.50;;;5.00;;
12784;SDS011;6456;42.680;23.260;2024-02-21T10:58:37;5.40;;;4.90;;
12784;SDS011;6456;42.680;23.260;2024-02-21T11:01:05;5.87;;;4.70;;
12784;SDS011;6456;42.680;23.260;2024-02-21T11:03:34;5.57;;;5.07;;
12784;SDS011;6456;42.680;23.260;2024-02-21T11:06:02;5.40;;;4.90;;
12784;SDS011;6456;42.680;23.260;2024-02-21T11:08:32;6.17;;;5.10;;
12784;SDS011;6456;42.680;23.260;2024-02-21T11:10:59;5.03;;;4.53;;
12784;SDS011;6456;42.680;23.260;2024-02-21T11:13:32;5.77;;;4.90;;
12784;SDS011;6456;42.680;23.260;2024-02-21T11:16:08;4.90;;;4.40;;
12784;SDS011;6456;42.680;23.260;2024-02-21T11:18:36;5.17;;;4.60;;
12784;SDS011;6456;42.680;23.260;2024-02-21T11:21:04;5.83;;;4.20;;
12784;SDS011;6456;42.680;23.260;2024-02-21T11:23:32;4.57;;;4.17;;
12784;SDS011;6456;42.680;23.260;2024-02-21T11:26:08;4.60;;;4.20;;
12784;SDS011;6456;42.680;23.260;2024-02-21T11:28:38;5.20;;;3.80;;
12784;SDS011;6456;42.680;23.260;2024-02-21T11:31:10;3.40;;;3.10;;
12784;SDS011;6456;42.680;23.260;2024-02-21T11:33:39;4.00;;;3.60;;
12784;SDS011;6456;42.680;23.260;2024-02-21T11:36:07;4.30;;;3.90;;
12784;SDS011;6456;42.680;23.260;2024-02-21T11:38:36;3.83;;;3.53;;
12784;SDS011;6456;42.680;23.260;2024-02-21T11:41:09;4.13;;;3.73;;
12784;SDS011;6456;42.680;23.260;2024-02-21T11:43:41;4.10;;;3.70;;
12784;SDS011;6456;42.680;23.260;2024-02-21T11:46:08;4.43;;;3.80;;
12784;SDS011;6456;42.680;23.260;2024-02-21T11:48:37;4.63;;;4.23;;
12784;SDS011;6456;42.680;23.260;2024-02-21T11:51:04;4.40;;;4.00;;
12784;SDS011;6456;42.680;23.260;2024-02-21T11:53:33;6.17;;;4.47;;
12784;SDS011;6456;42.680;23.260;2024-02-21T11:56:05;6.73;;;4.20;;
12784;SDS011;6456;42.680;23.260;2024-02-21T11:58:35;4.13;;;3.73;;
12784;SDS011;6456;42.680;23.260;2024-02-21T12:01:02;4.37;;;3.90;;
12784;SDS011;6456;42.680;23.260;2024-02-21T12:03:33;4.97;;;4.33;;
12784;SDS011;6456;42.680;23.260;2024-02-21T12:06:01;4.97;;;4.03;;
12784;SDS011;6456;42.680;23.260;2024-02-21T12:08:41;4.70;;;4.20;;
12784;SDS011;6456;42.680;23.260;2024-02-21T12:11:20;5.53;;;4.83;;
12784;SDS011;6456;42.680;23.260;2024-02-21T12:13:48;5.17;;;4.33;;
12784;SDS011;6456;42.680;23.260;2024-02-21T12:16:27;5.17;;;4.63;;
12784;SDS011;6456;42.680;23.260;2024-02-21T12:18:55;4.47;;;4.07;;
12784;SDS011;6456;42.680;23.260;2024-02-21T12:21:29;5.17;;;3.97;;
12784;SDS011;6456;42.680;23.260;2024-02-21T12:24:04;5.50;;;4.80;;
12784;SDS011;6456;42.680;23.260;2024-02-21T12:26:38;4.37;;;3.97;;
12784;SDS011;6456;42.680;23.260;2024-02-21T12:29:05;6.00;;;4.90;;
12784;SDS011;6456;42.680;23.260;2024-02-21T12:31:35;4.80;;;4.30;;
12784;SDS011;6456;42.680;23.260;2024-02-21T12:34:02;4.63;;;4.07;;
12784;SDS011;6456;42.680;23.260;2024-02-21T12:36:31;4.40;;;3.97;;
12784;SDS011;6456;42.680;23.260;2024-02-21T12:38:58;4.00;;;3.53;;
12784;SDS011;6456;42.680;23.260;2024-02-21T12:41:29;4.80;;;3.97;;
12784;SDS011;6456;42.680;23.260;2024-02-21T12:43:58;6.17;;;4.10;;
12784;SDS011;6456;42.680;23.260;2024-02-21T12:46:25;4.10;;;3.70;;
12784;SDS011;6456;42.680;23.260;2024-02-21T12:48:57;4.13;;;3.73;;
12784;SDS011;6456;42.680;23.260;2024-02-21T12:51:24;5.30;;;3.93;;
12784;SDS011;6456;42.680;23.260;2024-02-21T12:53:53;5.20;;;3.97;;
12784;SDS011;6456;42.680;23.260;2024-02-21T12:56:20;4.07;;;3.67;;
12784;SDS011;6456;42.680;23.260;2024-02-21T12:58:49;4.73;;;4.33;;
12784;SDS011;6456;42.680;23.260;2024-02-21T13:01:16;4.60;;;4.20;;
12784;SDS011;6456;42.680;23.260;2024-02-21T13:03:44;5.43;;;4.93;;
12784;SDS011;6456;42.680;23.260;2024-02-21T13:06:11;5.30;;;4.80;;
12784;SDS011;6456;42.680;23.260;2024-02-21T13:08:39;4.97;;;4.47;;
12784;SDS011;6456;42.680;23.260;2024-02-21T13:11:06;5.77;;;4.80;;
12784;SDS011;6456;42.680;23.260;2024-02-21T13:13:33;7.53;;;5.53;;
12784;SDS011;6456;42.680;23.260;2024-02-21T13:16:05;6.70;;;6.00;;
12784;SDS011;6456;42.680;23.260;2024-02-21T13:18:34;5.73;;;5.13;;
12784;SDS011;6456;42.680;23.260;2024-02-21T13:21:03;6.50;;;5.73;;
12784;SDS011;6456;42.680;23.260;2024-02-21T13:23:31;6.97;;;6.27;;
12784;SDS011;6456;42.680;23.260;2024-02-21T13:25:59;6.30;;;5.43;;
12784;SDS011;6456;42.680;23.260;2024-02-21T13:28:26;9.37;;;5.30;;
12784;SDS011;6456;42.680;23.260;2024-02-21T13:30:53;6.77;;;4.90;;
12784;SDS011;6456;42.680;23.260;2024-02-21T13:33:21;5.63;;;4.57;;
12784;SDS011;6456;42.680;23.260;2024-02-21T13:35:49;7.70;;;4.70;;
12784;SDS011;6456;42.680;23.260;2024-02-21T13:38:16;5.10;;;4.60;;
12784;SDS011;6456;42.680;23.260;2024-02-21T13:40:43;4.90;;;4.17;;
12784;SDS011;6456;42.680;23.260;2024-02-21T13:43:11;5.70;;;4.30;;
12784;SDS011;6456;42.680;23.260;2024-02-21T13:45:45;9.73;;;4.50;;
12784;SDS011;6456;42.680;23.260;2024-02-21T13:48:23;4.50;;;4.10;;
12784;SDS011;6456;42.680;23.260;2024-02-21T13:50:52;5.00;;;4.40;;
12784;SDS011;6456;42.680;23.260;2024-02-21T13:53:19;5.03;;;4.37;;
12784;SDS011;6456;42.680;23.260;2024-02-21T13:55:46;4.80;;;4.40;;
12784;SDS011;6456;42.680;23.260;2024-02-21T13:58:13;5.67;;;5.00;;
12784;SDS011;6456;42.680;23.260;2024-02-21T14:00:43;5.37;;;4.87;;
12784;SDS011;6456;42.680;23.260;2024-02-21T14:03:10;6.13;;;4.83;;
12784;SDS011;6456;42.680;23.260;2024-02-21T14:05:39;5.60;;;4.63;;
12784;SDS011;6456;42.680;23.260;2024-02-21T14:08:08;5.93;;;4.83;;
12784;SDS011;6456;42.680;23.260;2024-02-21T14:10:36;5.00;;;4.50;;
12784;SDS011;6456;42.680;23.260;2024-02-21T14:13:03;6.60;;;4.60;;
12784;SDS011;6456;42.680;23.260;2024-02-21T14:15:33;6.37;;;4.20;;
12784;SDS011;6456;42.680;23.260;2024-02-21T14:18:02;5.30;;;4.30;;
12784;SDS011;6456;42.680;23.260;2024-02-21T14:20:31;5.67;;;4.60;;
12784;SDS011;6456;42.680;23.260;2024-02-21T14:22:59;7.27;;;4.60;;
12784;SDS011;6456;42.680;23.260;2024-02-21T14:25:26;6.90;;;4.77;;
12784;SDS011;6456;42.680;23.260;2024-02-21T14:27:54;5.13;;;4.63;;
12784;SDS011;6456;42.680;23.260;2024-02-21T14:30:22;5.37;;;4.87;;
12784;SDS011;6456;42.680;23.260;2024-02-21T14:32:49;5.27;;;4.70;;
12784;SDS011;6456;42.680;23.260;2024-02-21T14:35:16;5.83;;;5.23;;
12784;SDS011;6456;42.680;23.260;2024-02-21T14:37:45;5.40;;;4.90;;
12784;SDS011;6456;42.680;23.260;2024-02-21T14:40:15;6.63;;;4.60;;
12784;SDS011;6456;42.680;23.260;2024-02-21T14:42:48;6.47;;;5.27;;
12784;SDS011;6456;42.680;23.260;2024-02-21T14:45:22;5.27;;;4.77;;
12784;SDS011;6456;42.680;23.260;2024-02-21T14:47:49;6.07;;;4.40;;
12784;SDS011;6456;42.680;23.260;2024-02-21T14:50:20;6.00;;;4.73;;